sensor_id;sensor_type;location;lat;lon;timestamp;temperature;humidity
68051;DHT22;54839;51.364;7.246;2024-02-26T00:01:53;5.30;99.90
68051;DHT22;54839;51.364;7.246;2024-02-26T00:04:19;5.50;99.90
68051;DHT22;54839;51.364;7.246;2024-02-26T00:06:44;5.40;99.90
68051;DHT22;54839;51.364;7.246;2024-02-26T00:09:10;5.30;99.90
68051;DHT22;54839;51.364;7.246;2024-02-26T00:11:36;5.40;99.90
68051;DHT22;54839;51.364;7.246;2024-02-26T00:14:02;5.40;99.90
68051;DHT22;54839;51.364;7.246;2024-02-26T00:16:28;5.40;99.90
68051;DHT22;54839;51.364;7.246;2024-02-26T00:18:53;5.40;99.90
68051;DHT22;54839;51.364;7.246;2024-02-26T00:21:19;5.40;99.90
68051;DHT22;54839;51.364;7.246;2024-02-26T00:23:45;5.40;99.90
68051;DHT22;54839;51.364;7.246;2024-02-26T00:26:10;5.40;99.90
68051;DHT22;54839;51.364;7.246;2024-02-26T00:28:36;5.50;99.90
68051;DHT22;54839;51.364;7.246;2024-02-26T00:31:02;5.40;99.90
68051;DHT22;54839;51.364;7.246;2024-02-26T00:33:28;5.40;99.90
68051;DHT22;54839;51.364;7.246;2024-02-26T00:35:53;5.40;99.90
68051;DHT22;54839;51.364;7.246;2024-02-26T00:38:19;5.40;99.90
68051;DHT22;54839;51.364;7.246;2024-02-26T00:40:45;5.50;99.90
68051;DHT22;54839;51.364;7.246;2024-02-26T00:43:11;5.50;99.90
68051;DHT22;54839;51.364;7.246;2024-02-26T00:45:36;5.50;99.90
68051;DHT22;54839;51.364;7.246;2024-02-26T00:48:02;5.50;99.90
68051;DHT22;54839;51.364;7.246;2024-02-26T00:50:31;5.50;99.90
68051;DHT22;54839;51.364;7.246;2024-02-26T00:52:57;5.30;99.90
68051;DHT22;54839;51.364;7.246;2024-02-26T00:55:22;5.30;99.90
68051;DHT22;54839;51.364;7.246;2024-02-26T00:57:48;5.40;99.90
68051;DHT22;54839;51.364;7.246;2024-02-26T01:00:14;5.40;99.90
68051;DHT22;54839;51.364;7.246;2024-02-26T01:02:39;5.50;99.90
68051;DHT22;54839;51.364;7.246;2024-02-26T01:05:07;5.40;99.90
68051;DHT22;54839;51.364;7.246;2024-02-26T01:07:34;5.40;99.90
68051;DHT22;54839;51.364;7.246;2024-02-26T01:10:02;5.40;99.90
68051;DHT22;54839;51.364;7.246;2024-02-26T01:12:28;5.30;99.90
68051;DHT22;54839;51.364;7.246;2024-02-26T01:14:53;5.30;99.90
68051;DHT22;54839;51.364;7.246;2024-02-26T01:17:19;5.30;99.90
68051;DHT22;54839;51.364;7.246;2024-02-26T01:19:44;5.20;99.90
68051;DHT22;54839;51.364;7.246;2024-02-26T01:22:10;5.10;99.90
68051;DHT22;54839;51.364;7.246;2024-02-26T01:24:35;5.20;99.90
68051;DHT22;54839;51.364;7.246;2024-02-26T01:27:01;5.20;99.90
68051;DHT22;54839;51.364;7.246;2024-02-26T01:29:26;5.20;99.90
68051;DHT22;54839;51.364;7.246;2024-02-26T01:31:52;5.20;99.90
68051;DHT22;54839;51.364;7.246;2024-02-26T01:34:17;5.20;99.90
68051;DHT22;54839;51.364;7.246;2024-02-26T01:36:43;5.10;99.90
68051;DHT22;54839;51.364;7.246;2024-02-26T01:39:09;5.20;99.90
68051;DHT22;54839;51.364;7.246;2024-02-26T01:41:38;5.20;99.90
68051;DHT22;54839;51.364;7.246;2024-02-26T01:44:04;5.20;99.90
68051;DHT22;54839;51.364;7.246;2024-02-26T01:46:30;5.30;99.90
68051;DHT22;54839;51.364;7.246;2024-02-26T01:48:56;5.10;99.90
68051;DHT22;54839;51.364;7.246;2024-02-26T01:51:22;5.20;99.90
68051;DHT22;54839;51.364;7.246;2024-02-26T01:53:48;5.10;99.90
68051;DHT22;54839;51.364;7.246;2024-02-26T01:56:15;5.20;99.90
68051;DHT22;54839;51.364;7.246;2024-02-26T01:58:43;5.20;99.90
68051;DHT22;54839;51.364;7.246;2024-02-26T02:01:08;5.10;99.90
68051;DHT22;54839;51.364;7.246;2024-02-26T02:03:36;5.10;99.90
68051;DHT22;54839;51.364;7.246;2024-02-26T02:06:02;5.20;99.90
68051;DHT22;54839;51.364;7.246;2024-02-26T02:08:28;5.10;99.90
68051;DHT22;54839;51.364;7.246;2024-02-26T02:10:54;5.20;99.90
68051;DHT22;54839;51.364;7.246;2024-02-26T02:13:20;5.10;99.90
68051;DHT22;54839;51.364;7.246;2024-02-26T02:15:46;5.20;99.90
68051;DHT22;54839;51.364;7.246;2024-02-26T02:18:11;5.20;99.90
68051;DHT22;54839;51.364;7.246;2024-02-26T02:20:37;5.20;99.90
68051;DHT22;54839;51.364;7.246;2024-02-26T02:23:03;5.20;99.90
68051;DHT22;54839;51.364;7.246;2024-02-26T02:25:28;5.20;99.90
68051;DHT22;54839;51.364;7.246;2024-02-26T02:27:55;5.10;99.90
68051;DHT22;54839;51.364;7.246;2024-02-26T02:30:24;5.20;99.90
68051;DHT22;54839;51.364;7.246;2024-02-26T02:32:50;5.10;99.90
68051;DHT22;54839;51.364;7.246;2024-02-26T02:35:16;5.10;99.90
68051;DHT22;54839;51.364;7.246;2024-02-26T02:37:42;5.20;99.90
68051;DHT22;54839;51.364;7.246;2024-02-26T02:40:08;5.20;99.90
68051;DHT22;54839;51.364;7.246;2024-02-26T02:42:33;5.20;99.90
68051;DHT22;54839;51.364;7.246;2024-02-26T02:44:59;5.20;99.90
68051;DHT22;54839;51.364;7.246;2024-02-26T02:47:24;5.20;99.90
68051;DHT22;54839;51.364;7.246;2024-02-26T02:49:50;5.20;99.90
68051;DHT22;54839;51.364;7.246;2024-02-26T02:52:15;5.20;99.90
68051;DHT22;54839;51.364;7.246;2024-02-26T02:54:41;5.20;99.90
68051;DHT22;54839;51.364;7.246;2024-02-26T02:57:08;5.20;99.90
68051;DHT22;54839;51.364;7.246;2024-02-26T02:59:34;5.30;99.90
68051;DHT22;54839;51.364;7.246;2024-02-26T03:02:00;5.20;99.90
68051;DHT22;54839;51.364;7.246;2024-02-26T03:04:25;5.30;99.90
68051;DHT22;54839;51.364;7.246;2024-02-26T03:06:51;5.30;99.90
68051;DHT22;54839;51.364;7.246;2024-02-26T03:09:16;5.20;99.90
68051;DHT22;54839;51.364;7.246;2024-02-26T03:11:42;5.10;99.90
68051;DHT22;54839;51.364;7.246;2024-02-26T03:14:08;5.00;99.90
68051;DHT22;54839;51.364;7.246;2024-02-26T03:16:35;5.10;99.90
68051;DHT22;54839;51.364;7.246;2024-02-26T03:19:00;5.10;99.90
68051;DHT22;54839;51.364;7.246;2024-02-26T03:21:27;5.00;99.90
68051;DHT22;54839;51.364;7.246;2024-02-26T03:23:52;5.00;99.90
68051;DHT22;54839;51.364;7.246;2024-02-26T03:26:18;4.90;99.90
68051;DHT22;54839;51.364;7.246;2024-02-26T03:28:44;5.00;99.90
68051;DHT22;54839;51.364;7.246;2024-02-26T03:31:09;5.00;99.90
68051;DHT22;54839;51.364;7.246;2024-02-26T03:33:36;5.10;99.90
68051;DHT22;54839;51.364;7.246;2024-02-26T03:36:01;5.00;99.90
68051;DHT22;54839;51.364;7.246;2024-02-26T03:38:28;5.00;99.90
68051;DHT22;54839;51.364;7.246;2024-02-26T03:40:54;5.10;99.90
68051;DHT22;54839;51.364;7.246;2024-02-26T03:43:19;5.10;99.90
68051;DHT22;54839;51.364;7.246;2024-02-26T03:45:45;5.00;99.90
68051;DHT22;54839;51.364;7.246;2024-02-26T03:48:10;4.90;99.90
68051;DHT22;54839;51.364;7.246;2024-02-26T03:50:36;5.00;99.90
68051;DHT22;54839;51.364;7.246;2024-02-26T03:53:01;4.90;99.90
68051;DHT22;54839;51.364;7.246;2024-02-26T03:55:27;5.00;99.90
68051;DHT22;54839;51.364;7.246;2024-02-26T03:57:52;5.00;99.90
68051;DHT22;54839;51.364;7.246;2024-02-26T04:00:19;4.90;99.90
68051;DHT22;54839;51.364;7.246;2024-02-26T04:02:46;4.90;99.90
68051;DHT22;54839;51.364;7.246;2024-02-26T04:05:13;4.90;99.90
68051;DHT22;54839;51.364;7.246;2024-02-26T04:07:39;4.90;99.90
68051;DHT22;54839;51.364;7.246;2024-02-26T04:10:12;4.90;99.90
68051;DHT22;54839;51.364;7.246;2024-02-26T04:12:41;4.90;99.90
68051;DHT22;54839;51.364;7.246;2024-02-26T04:15:08;4.80;99.90
68051;DHT22;54839;51.364;7.246;2024-02-26T04:17:34;4.90;99.90
68051;DHT22;54839;51.364;7.246;2024-02-26T04:19:59;4.80;99.90
68051;DHT22;54839;51.364;7.246;2024-02-26T04:22:25;4.80;99.90
68051;DHT22;54839;51.364;7.246;2024-02-26T04:24:51;4.70;99.90
68051;DHT22;54839;51.364;7.246;2024-02-26T04:27:16;4.70;99.90
68051;DHT22;54839;51.364;7.246;2024-02-26T04:29:42;4.60;99.90
68051;DHT22;54839;51.364;7.246;2024-02-26T04:32:07;4.60;99.90
68051;DHT22;54839;51.364;7.246;2024-02-26T04:34:33;4.70;99.90
68051;DHT22;54839;51.364;7.246;2024-02-26T04:36:58;4.60;99.90
68051;DHT22;54839;51.364;7.246;2024-02-26T04:39:24;4.60;99.90
68051;DHT22;54839;51.364;7.246;2024-02-26T04:41:49;4.70;99.90
68051;DHT22;54839;51.364;7.246;2024-02-26T04:44:15;4.80;99.90
68051;DHT22;54839;51.364;7.246;2024-02-26T04:46:40;4.70;99.90
68051;DHT22;54839;51.364;7.246;2024-02-26T04:49:06;4.80;99.90
68051;DHT22;54839;51.364;7.246;2024-02-26T04:51:31;4.70;99.90
68051;DHT22;54839;51.364;7.246;2024-02-26T04:53:57;4.60;99.90
68051;DHT22;54839;51.364;7.246;2024-02-26T04:56:22;4.70;99.90
68051;DHT22;54839;51.364;7.246;2024-02-26T04:58:48;4.60;99.90
68051;DHT22;54839;51.364;7.246;2024-02-26T05:01:14;4.60;99.90
68051;DHT22;54839;51.364;7.246;2024-02-26T05:03:42;4.60;99.90
68051;DHT22;54839;51.364;7.246;2024-02-26T05:06:07;4.50;99.90
68051;DHT22;54839;51.364;7.246;2024-02-26T05:08:34;4.50;99.90
68051;DHT22;54839;51.364;7.246;2024-02-26T05:11:01;4.50;99.90
68051;DHT22;54839;51.364;7.246;2024-02-26T05:13:28;4.60;99.90
68051;DHT22;54839;51.364;7.246;2024-02-26T05:15:54;4.60;99.90
68051;DHT22;54839;51.364;7.246;2024-02-26T05:18:19;4.60;99.90
68051;DHT22;54839;51.364;7.246;2024-02-26T05:20:45;4.60;99.90
68051;DHT22;54839;51.364;7.246;2024-02-26T05:23:10;4.40;99.90
68051;DHT22;54839;51.364;7.246;2024-02-26T05:25:36;4.40;99.90
68051;DHT22;54839;51.364;7.246;2024-02-26T05:28:01;4.40;99.90
68051;DHT22;54839;51.364;7.246;2024-02-26T05:30:27;4.30;99.90
68051;DHT22;54839;51.364;7.246;2024-02-26T05:32:53;4.40;99.90
68051;DHT22;54839;51.364;7.246;2024-02-26T05:35:19;4.30;99.90
68051;DHT22;54839;51.364;7.246;2024-02-26T05:37:45;4.30;99.90
68051;DHT22;54839;51.364;7.246;2024-02-26T05:40:11;4.30;99.90
68051;DHT22;54839;51.364;7.246;2024-02-26T05:42:37;4.30;99.90
68051;DHT22;54839;51.364;7.246;2024-02-26T05:45:03;4.30;99.90
68051;DHT22;54839;51.364;7.246;2024-02-26T05:47:32;4.30;99.90
68051;DHT22;54839;51.364;7.246;2024-02-26T05:49:58;4.30;99.90
68051;DHT22;54839;51.364;7.246;2024-02-26T05:52:24;4.40;99.90
68051;DHT22;54839;51.364;7.246;2024-02-26T05:54:50;4.40;99.90
68051;DHT22;54839;51.364;7.246;2024-02-26T05:57:15;4.30;99.90
68051;DHT22;54839;51.364;7.246;2024-02-26T05:59:41;4.30;99.90
68051;DHT22;54839;51.364;7.246;2024-02-26T06:02:07;4.20;99.90
68051;DHT22;54839;51.364;7.246;2024-02-26T06:04:32;4.30;99.90
68051;DHT22;54839;51.364;7.246;2024-02-26T06:06:58;4.30;99.90
68051;DHT22;54839;51.364;7.246;2024-02-26T06:09:23;4.40;99.90
68051;DHT22;54839;51.364;7.246;2024-02-26T06:11:49;4.40;99.90
68051;DHT22;54839;51.364;7.246;2024-02-26T06:14:14;4.30;99.90
68051;DHT22;54839;51.364;7.246;2024-02-26T06:16:43;4.40;99.90
68051;DHT22;54839;51.364;7.246;2024-02-26T06:19:09;4.30;99.90
68051;DHT22;54839;51.364;7.246;2024-02-26T06:21:34;4.30;99.90
68051;DHT22;54839;51.364;7.246;2024-02-26T06:24:01;4.40;99.90
68051;DHT22;54839;51.364;7.246;2024-02-26T06:26:26;4.40;99.90
68051;DHT22;54839;51.364;7.246;2024-02-26T06:28:54;4.30;99.90
68051;DHT22;54839;51.364;7.246;2024-02-26T06:31:21;4.40;99.90
68051;DHT22;54839;51.364;7.246;2024-02-26T06:33:48;4.50;99.90
68051;DHT22;54839;51.364;7.246;2024-02-26T06:36:15;4.50;99.90
68051;DHT22;54839;51.364;7.246;2024-02-26T06:38:40;4.50;99.90
68051;DHT22;54839;51.364;7.246;2024-02-26T06:41:06;4.50;99.90
68051;DHT22;54839;51.364;7.246;2024-02-26T06:43:31;4.40;99.90
68051;DHT22;54839;51.364;7.246;2024-02-26T06:45:57;4.40;99.90
68051;DHT22;54839;51.364;7.246;2024-02-26T06:48:24;4.40;99.90
68051;DHT22;54839;51.364;7.246;2024-02-26T06:50:50;4.50;99.90
68051;DHT22;54839;51.364;7.246;2024-02-26T06:53:15;4.60;99.90
68051;DHT22;54839;51.364;7.246;2024-02-26T06:55:42;4.60;99.90
68051;DHT22;54839;51.364;7.246;2024-02-26T06:58:08;4.70;99.90
68051;DHT22;54839;51.364;7.246;2024-02-26T07:00:34;4.70;99.90
68051;DHT22;54839;51.364;7.246;2024-02-26T07:02:59;4.70;99.90
68051;DHT22;54839;51.364;7.246;2024-02-26T07:05:25;4.60;99.90
68051;DHT22;54839;51.364;7.246;2024-02-26T07:07:51;4.70;99.90
68051;DHT22;54839;51.364;7.246;2024-02-26T07:10:16;4.70;99.90
68051;DHT22;54839;51.364;7.246;2024-02-26T07:12:42;4.70;99.90
68051;DHT22;54839;51.364;7.246;2024-02-26T07:15:08;4.70;99.90
68051;DHT22;54839;51.364;7.246;2024-02-26T07:17:34;4.60;99.90
68051;DHT22;54839;51.364;7.246;2024-02-26T07:20:00;4.70;99.90
68051;DHT22;54839;51.364;7.246;2024-02-26T07:22:25;4.60;99.90
68051;DHT22;54839;51.364;7.246;2024-02-26T07:24:51;4.50;99.90
68051;DHT22;54839;51.364;7.246;2024-02-26T07:27:18;4.60;99.90
68051;DHT22;54839;51.364;7.246;2024-02-26T07:29:44;4.50;99.90
68051;DHT22;54839;51.364;7.246;2024-02-26T07:32:09;4.60;99.90
68051;DHT22;54839;51.364;7.246;2024-02-26T07:34:36;4.50;99.90
68051;DHT22;54839;51.364;7.246;2024-02-26T07:37:04;4.50;99.90
68051;DHT22;54839;51.364;7.246;2024-02-26T07:39:29;4.50;99.90
68051;DHT22;54839;51.364;7.246;2024-02-26T07:41:55;4.60;99.90
68051;DHT22;54839;51.364;7.246;2024-02-26T07:44:20;4.60;99.90
68051;DHT22;54839;51.364;7.246;2024-02-26T07:46:46;4.60;99.90
68051;DHT22;54839;51.364;7.246;2024-02-26T07:49:11;4.60;99.90
68051;DHT22;54839;51.364;7.246;2024-02-26T07:51:37;4.60;99.90
68051;DHT22;54839;51.364;7.246;2024-02-26T07:54:02;4.70;99.90
68051;DHT22;54839;51.364;7.246;2024-02-26T07:56:28;4.70;99.90
68051;DHT22;54839;51.364;7.246;2024-02-26T07:58:53;4.70;99.90
68051;DHT22;54839;51.364;7.246;2024-02-26T08:01:19;4.70;99.90
68051;DHT22;54839;51.364;7.246;2024-02-26T08:03:44;4.80;99.90
68051;DHT22;54839;51.364;7.246;2024-02-26T08:06:10;4.90;99.90
68051;DHT22;54839;51.364;7.246;2024-02-26T08:08:36;4.90;99.90
68051;DHT22;54839;51.364;7.246;2024-02-26T08:11:01;4.90;99.90
68051;DHT22;54839;51.364;7.246;2024-02-26T08:13:27;4.80;99.90
68051;DHT22;54839;51.364;7.246;2024-02-26T08:15:52;4.90;99.90
68051;DHT22;54839;51.364;7.246;2024-02-26T08:18:18;5.00;99.90
68051;DHT22;54839;51.364;7.246;2024-02-26T08:20:44;4.90;99.90
68051;DHT22;54839;51.364;7.246;2024-02-26T08:23:10;4.90;99.90
68051;DHT22;54839;51.364;7.246;2024-02-26T08:25:35;4.80;99.90
68051;DHT22;54839;51.364;7.246;2024-02-26T08:28:01;4.90;99.90
68051;DHT22;54839;51.364;7.246;2024-02-26T08:30:27;5.00;99.90
68051;DHT22;54839;51.364;7.246;2024-02-26T08:32:52;4.90;99.90
68051;DHT22;54839;51.364;7.246;2024-02-26T08:35:18;5.00;99.90
68051;DHT22;54839;51.364;7.246;2024-02-26T08:37:45;5.00;99.90
68051;DHT22;54839;51.364;7.246;2024-02-26T08:40:11;5.10;99.90
68051;DHT22;54839;51.364;7.246;2024-02-26T08:42:37;5.20;99.90
68051;DHT22;54839;51.364;7.246;2024-02-26T08:45:02;5.30;99.90
68051;DHT22;54839;51.364;7.246;2024-02-26T08:47:28;5.30;99.90
68051;DHT22;54839;51.364;7.246;2024-02-26T08:49:54;5.30;99.90
68051;DHT22;54839;51.364;7.246;2024-02-26T08:52:20;5.50;99.90
68051;DHT22;54839;51.364;7.246;2024-02-26T08:54:47;5.50;99.90
68051;DHT22;54839;51.364;7.246;2024-02-26T08:57:12;5.50;99.90
68051;DHT22;54839;51.364;7.246;2024-02-26T08:59:38;5.60;99.90
68051;DHT22;54839;51.364;7.246;2024-02-26T09:02:04;5.70;99.90
68051;DHT22;54839;51.364;7.246;2024-02-26T09:04:29;5.60;99.90
68051;DHT22;54839;51.364;7.246;2024-02-26T09:06:55;5.80;99.90
68051;DHT22;54839;51.364;7.246;2024-02-26T09:09:20;5.80;99.90
68051;DHT22;54839;51.364;7.246;2024-02-26T09:11:48;5.80;99.90
68051;DHT22;54839;51.364;7.246;2024-02-26T09:14:14;5.80;99.90
68051;DHT22;54839;51.364;7.246;2024-02-26T09:16:39;5.80;99.90
68051;DHT22;54839;51.364;7.246;2024-02-26T09:19:05;5.70;99.90
68051;DHT22;54839;51.364;7.246;2024-02-26T09:21:30;5.70;99.90
68051;DHT22;54839;51.364;7.246;2024-02-26T09:23:56;5.70;99.90
68051;DHT22;54839;51.364;7.246;2024-02-26T09:26:21;5.80;99.90
68051;DHT22;54839;51.364;7.246;2024-02-26T09:28:47;5.80;99.90
68051;DHT22;54839;51.364;7.246;2024-02-26T09:31:17;6.00;99.90
68051;DHT22;54839;51.364;7.246;2024-02-26T09:33:43;6.00;99.90
68051;DHT22;54839;51.364;7.246;2024-02-26T09:36:09;6.10;99.90
68051;DHT22;54839;51.364;7.246;2024-02-26T09:38:36;6.20;99.90
68051;DHT22;54839;51.364;7.246;2024-02-26T09:41:06;6.20;99.90
68051;DHT22;54839;51.364;7.246;2024-02-26T09:43:35;6.10;99.90
68051;DHT22;54839;51.364;7.246;2024-02-26T09:46:05;6.40;99.90
68051;DHT22;54839;51.364;7.246;2024-02-26T09:48:31;6.30;99.90
68051;DHT22;54839;51.364;7.246;2024-02-26T09:50:58;6.20;99.90
68051;DHT22;54839;51.364;7.246;2024-02-26T09:53:23;6.10;99.90
68051;DHT22;54839;51.364;7.246;2024-02-26T09:55:49;6.20;99.90
68051;DHT22;54839;51.364;7.246;2024-02-26T09:58:15;6.30;99.90
68051;DHT22;54839;51.364;7.246;2024-02-26T10:00:47;6.40;99.90
68051;DHT22;54839;51.364;7.246;2024-02-26T10:03:16;6.40;99.90
68051;DHT22;54839;51.364;7.246;2024-02-26T10:05:44;6.50;99.90
68051;DHT22;54839;51.364;7.246;2024-02-26T10:08:11;6.40;99.90
68051;DHT22;54839;51.364;7.246;2024-02-26T10:10:38;6.50;99.90
68051;DHT22;54839;51.364;7.246;2024-02-26T10:13:04;6.60;99.90
68051;DHT22;54839;51.364;7.246;2024-02-26T10:15:36;6.50;99.90
68051;DHT22;54839;51.364;7.246;2024-02-26T10:18:07;6.40;99.90
68051;DHT22;54839;51.364;7.246;2024-02-26T10:20:33;6.30;99.90
68051;DHT22;54839;51.364;7.246;2024-02-26T10:23:02;6.20;99.90
68051;DHT22;54839;51.364;7.246;2024-02-26T10:25:28;6.20;99.90
68051;DHT22;54839;51.364;7.246;2024-02-26T10:27:54;6.30;99.90
68051;DHT22;54839;51.364;7.246;2024-02-26T10:30:22;6.50;99.90
68051;DHT22;54839;51.364;7.246;2024-02-26T10:32:49;6.40;99.90
68051;DHT22;54839;51.364;7.246;2024-02-26T10:35:15;6.40;99.90
68051;DHT22;54839;51.364;7.246;2024-02-26T10:37:42;6.40;99.90
68051;DHT22;54839;51.364;7.246;2024-02-26T10:40:15;6.40;99.90
68051;DHT22;54839;51.364;7.246;2024-02-26T10:42:41;6.40;99.90
68051;DHT22;54839;51.364;7.246;2024-02-26T10:45:09;6.30;99.90
68051;DHT22;54839;51.364;7.246;2024-02-26T10:47:35;6.50;99.90
68051;DHT22;54839;51.364;7.246;2024-02-26T10:50:03;6.60;99.90
68051;DHT22;54839;51.364;7.246;2024-02-26T10:52:32;6.40;99.90
68051;DHT22;54839;51.364;7.246;2024-02-26T10:55:00;6.40;99.90
68051;DHT22;54839;51.364;7.246;2024-02-26T10:57:36;6.50;99.90
68051;DHT22;54839;51.364;7.246;2024-02-26T11:00:05;6.40;99.90
68051;DHT22;54839;51.364;7.246;2024-02-26T11:02:33;6.30;99.90
68051;DHT22;54839;51.364;7.246;2024-02-26T11:05:02;6.40;99.90
68051;DHT22;54839;51.364;7.246;2024-02-26T11:07:28;6.50;99.90
68051;DHT22;54839;51.364;7.246;2024-02-26T11:09:55;6.70;99.90
68051;DHT22;54839;51.364;7.246;2024-02-26T11:12:22;6.80;99.90
68051;DHT22;54839;51.364;7.246;2024-02-26T11:14:50;6.80;99.90
68051;DHT22;54839;51.364;7.246;2024-02-26T11:17:22;6.90;99.90
68051;DHT22;54839;51.364;7.246;2024-02-26T11:19:48;7.00;99.90
68051;DHT22;54839;51.364;7.246;2024-02-26T11:22:15;7.10;99.90
68051;DHT22;54839;51.364;7.246;2024-02-26T11:24:40;7.40;99.90
68051;DHT22;54839;51.364;7.246;2024-02-26T11:27:10;7.40;99.90
68051;DHT22;54839;51.364;7.246;2024-02-26T11:29:47;7.60;99.90
68051;DHT22;54839;51.364;7.246;2024-02-26T11:32:13;7.60;99.90
68051;DHT22;54839;51.364;7.246;2024-02-26T11:34:40;7.50;99.90
68051;DHT22;54839;51.364;7.246;2024-02-26T11:37:10;7.70;99.90
68051;DHT22;54839;51.364;7.246;2024-02-26T11:39:37;7.80;99.90
68051;DHT22;54839;51.364;7.246;2024-02-26T11:42:14;7.90;99.90
68051;DHT22;54839;51.364;7.246;2024-02-26T11:44:40;8.00;99.90
68051;DHT22;54839;51.364;7.246;2024-02-26T11:47:28;8.10;99.90
68051;DHT22;54839;51.364;7.246;2024-02-26T11:49:54;7.90;99.90
68051;DHT22;54839;51.364;7.246;2024-02-26T11:52:19;7.80;99.90
68051;DHT22;54839;51.364;7.246;2024-02-26T11:54:49;7.90;99.90
68051;DHT22;54839;51.364;7.246;2024-02-26T12:00:13;8.20;99.90
68051;DHT22;54839;51.364;7.246;2024-02-26T12:02:55;8.30;99.90
68051;DHT22;54839;51.364;7.246;2024-02-26T12:05:26;8.40;99.90
68051;DHT22;54839;51.364;7.246;2024-02-26T12:10:28;8.50;99.90
68051;DHT22;54839;51.364;7.246;2024-02-26T12:13:07;8.40;99.90
68051;DHT22;54839;51.364;7.246;2024-02-26T12:15:37;8.60;99.90
68051;DHT22;54839;51.364;7.246;2024-02-26T12:18:05;8.60;99.90
68051;DHT22;54839;51.364;7.246;2024-02-26T12:20:31;8.80;99.90
68051;DHT22;54839;51.364;7.246;2024-02-26T12:22:57;8.80;99.90
68051;DHT22;54839;51.364;7.246;2024-02-26T12:25:28;8.90;99.90
68051;DHT22;54839;51.364;7.246;2024-02-26T12:27:55;8.90;99.90
68051;DHT22;54839;51.364;7.246;2024-02-26T12:30:21;8.90;99.90
68051;DHT22;54839;51.364;7.246;2024-02-26T12:32:50;8.60;99.90
68051;DHT22;54839;51.364;7.246;2024-02-26T12:35:16;8.70;99.90
68051;DHT22;54839;51.364;7.246;2024-02-26T12:37:46;8.40;99.90
68051;DHT22;54839;51.364;7.246;2024-02-26T12:40:12;8.30;99.90
68051;DHT22;54839;51.364;7.246;2024-02-26T12:42:39;8.30;99.90
68051;DHT22;54839;51.364;7.246;2024-02-26T12:45:07;8.30;99.90
68051;DHT22;54839;51.364;7.246;2024-02-26T12:47:43;8.50;99.90
68051;DHT22;54839;51.364;7.246;2024-02-26T12:50:11;8.50;99.90
68051;DHT22;54839;51.364;7.246;2024-02-26T12:52:44;8.30;99.90
68051;DHT22;54839;51.364;7.246;2024-02-26T12:55:16;8.30;99.90
68051;DHT22;54839;51.364;7.246;2024-02-26T12:57:43;8.60;99.90
68051;DHT22;54839;51.364;7.246;2024-02-26T13:00:13;8.60;99.90
68051;DHT22;54839;51.364;7.246;2024-02-26T13:02:41;8.60;99.90
68051;DHT22;54839;51.364;7.246;2024-02-26T13:05:10;8.50;99.90
68051;DHT22;54839;51.364;7.246;2024-02-26T13:07:43;8.60;99.90
68051;DHT22;54839;51.364;7.246;2024-02-26T13:10:09;8.80;99.90
68051;DHT22;54839;51.364;7.246;2024-02-26T13:12:41;8.90;99.90
68051;DHT22;54839;51.364;7.246;2024-02-26T13:15:13;8.70;99.90
68051;DHT22;54839;51.364;7.246;2024-02-26T13:17:39;8.50;99.90
68051;DHT22;54839;51.364;7.246;2024-02-26T13:20:05;8.70;99.90
68051;DHT22;54839;51.364;7.246;2024-02-26T13:22:31;8.80;99.90
68051;DHT22;54839;51.364;7.246;2024-02-26T13:24:59;8.80;99.90
68051;DHT22;54839;51.364;7.246;2024-02-26T13:27:25;8.80;99.90
68051;DHT22;54839;51.364;7.246;2024-02-26T13:30:12;9.30;99.90
68051;DHT22;54839;51.364;7.246;2024-02-26T13:32:41;9.50;99.90
68051;DHT22;54839;51.364;7.246;2024-02-26T13:35:11;9.50;99.90
68051;DHT22;54839;51.364;7.246;2024-02-26T13:37:37;9.50;99.90
68051;DHT22;54839;51.364;7.246;2024-02-26T13:40:10;9.60;99.90
68051;DHT22;54839;51.364;7.246;2024-02-26T13:42:37;9.60;99.90
68051;DHT22;54839;51.364;7.246;2024-02-26T13:45:03;9.80;99.90
68051;DHT22;54839;51.364;7.246;2024-02-26T13:47:32;9.80;99.90
68051;DHT22;54839;51.364;7.246;2024-02-26T13:49:58;9.90;99.90
68051;DHT22;54839;51.364;7.246;2024-02-26T13:52:25;9.80;99.90
68051;DHT22;54839;51.364;7.246;2024-02-26T13:54:51;9.70;99.90
68051;DHT22;54839;51.364;7.246;2024-02-26T13:57:16;9.50;99.90
68051;DHT22;54839;51.364;7.246;2024-02-26T13:59:43;9.60;99.90
68051;DHT22;54839;51.364;7.246;2024-02-26T14:02:09;9.60;99.90
68051;DHT22;54839;51.364;7.246;2024-02-26T14:04:36;9.70;99.90
68051;DHT22;54839;51.364;7.246;2024-02-26T14:07:02;9.50;99.90
68051;DHT22;54839;51.364;7.246;2024-02-26T14:09:29;9.40;99.90
68051;DHT22;54839;51.364;7.246;2024-02-26T14:11:54;9.30;99.90
68051;DHT22;54839;51.364;7.246;2024-02-26T14:14:20;9.20;99.90
68051;DHT22;54839;51.364;7.246;2024-02-26T14:16:45;9.10;99.90
68051;DHT22;54839;51.364;7.246;2024-02-26T14:19:11;9.00;99.90
68051;DHT22;54839;51.364;7.246;2024-02-26T14:21:37;8.60;99.90
68051;DHT22;54839;51.364;7.246;2024-02-26T14:24:03;8.60;99.90
68051;DHT22;54839;51.364;7.246;2024-02-26T14:26:29;8.80;99.90
68051;DHT22;54839;51.364;7.246;2024-02-26T14:28:54;8.80;99.90
68051;DHT22;54839;51.364;7.246;2024-02-26T14:31:21;8.90;99.90
68051;DHT22;54839;51.364;7.246;2024-02-26T14:33:47;8.80;99.90
68051;DHT22;54839;51.364;7.246;2024-02-26T14:36:13;8.60;99.90
68051;DHT22;54839;51.364;7.246;2024-02-26T14:38:39;8.70;99.90
68051;DHT22;54839;51.364;7.246;2024-02-26T14:41:04;8.70;99.90
68051;DHT22;54839;51.364;7.246;2024-02-26T14:43:30;8.70;99.90
68051;DHT22;54839;51.364;7.246;2024-02-26T14:45:58;8.80;99.90
68051;DHT22;54839;51.364;7.246;2024-02-26T14:48:24;8.80;99.90
68051;DHT22;54839;51.364;7.246;2024-02-26T14:50:50;8.80;99.90
68051;DHT22;54839;51.364;7.246;2024-02-26T14:53:16;8.90;99.90
68051;DHT22;54839;51.364;7.246;2024-02-26T14:55:42;9.00;99.90
68051;DHT22;54839;51.364;7.246;2024-02-26T14:58:08;9.10;99.90
68051;DHT22;54839;51.364;7.246;2024-02-26T15:00:36;9.10;99.90
68051;DHT22;54839;51.364;7.246;2024-02-26T15:03:02;9.00;99.90
68051;DHT22;54839;51.364;7.246;2024-02-26T15:05:27;8.90;99.90
68051;DHT22;54839;51.364;7.246;2024-02-26T15:07:53;8.60;99.90
68051;DHT22;54839;51.364;7.246;2024-02-26T15:10:18;8.40;99.90
68051;DHT22;54839;51.364;7.246;2024-02-26T15:12:44;8.40;99.90
68051;DHT22;54839;51.364;7.246;2024-02-26T15:15:10;8.60;99.90
68051;DHT22;54839;51.364;7.246;2024-02-26T15:17:35;8.50;99.90
68051;DHT22;54839;51.364;7.246;2024-02-26T15:20:01;8.60;99.90
68051;DHT22;54839;51.364;7.246;2024-02-26T15:22:27;8.50;99.90
68051;DHT22;54839;51.364;7.246;2024-02-26T15:24:53;8.40;99.90
68051;DHT22;54839;51.364;7.246;2024-02-26T15:27:18;8.40;99.90
68051;DHT22;54839;51.364;7.246;2024-02-26T15:29:44;8.50;99.90
68051;DHT22;54839;51.364;7.246;2024-02-26T15:32:10;8.40;99.90
68051;DHT22;54839;51.364;7.246;2024-02-26T15:34:36;8.40;99.90
68051;DHT22;54839;51.364;7.246;2024-02-26T15:37:02;8.30;99.90
68051;DHT22;54839;51.364;7.246;2024-02-26T15:39:28;8.20;99.90
68051;DHT22;54839;51.364;7.246;2024-02-26T15:41:54;8.00;99.90
68051;DHT22;54839;51.364;7.246;2024-02-26T15:44:19;8.00;99.90
68051;DHT22;54839;51.364;7.246;2024-02-26T15:46:45;8.00;99.90